sensor_id;sensor_type;location;lat;lon;timestamp;pressure;altitude;pressure_sealevel;temperature;humidity
740;BME280;354;42.694;23.336;2023-02-28T00:01:04;95790.78;;;7.39;100.00
740;BME280;354;42.694;23.336;2023-02-28T00:03:30;95789.63;;;7.42;100.00
740;BME280;354;42.694;23.336;2023-02-28T00:05:55;95805.47;;;7.40;100.00
740;BME280;354;42.694;23.336;2023-02-28T00:08:21;95797.00;;;7.38;100.00
740;BME280;354;42.694;23.336;2023-02-28T00:10:46;95800.47;;;7.54;100.00
740;BME280;354;42.694;23.336;2023-02-28T00:13:11;95789.91;;;7.47;100.00
740;BME280;354;42.694;23.336;2023-02-28T00:15:38;95796.09;;;7.31;100.00
740;BME280;354;42.694;23.336;2023-02-28T00:18:03;95788.09;;;7.25;100.00
740;BME280;354;42.694;23.336;2023-02-28T00:20:29;95811.41;;;7.34;100.00
740;BME280;354;42.694;23.336;2023-02-28T00:22:55;95823.78;;;7.26;100.00
740;BME280;354;42.694;23.336;2023-02-28T00:25:23;95815.94;;;7.40;100.00
740;BME280;354;42.694;23.336;2023-02-28T00:27:49;95828.75;;;7.35;100.00
740;BME280;354;42.694;23.336;2023-02-28T00:30:17;95830.22;;;7.38;100.00
740;BME280;354;42.694;23.336;2023-02-28T00:32:43;95819.84;;;7.45;100.00
740;BME280;354;42.694;23.336;2023-02-28T00:35:09;95818.56;;;7.40;100.00
740;BME280;354;42.694;23.336;2023-02-28T00:37:35;95815.59;;;7.44;100.00
740;BME280;354;42.694;23.336;2023-02-28T00:40:01;95826.19;;;7.27;100.00
740;BME280;354;42.694;23.336;2023-02-28T00:42:27;95818.66;;;7.32;100.00
740;BME280;354;42.694;23.336;2023-02-28T00:44:52;95814.22;;;7.33;100.00
740;BME280;354;42.694;23.336;2023-02-28T00:47:18;95776.66;;;7.03;100.00
740;BME280;354;42.694;23.336;2023-02-28T00:49:43;95798.19;;;7.13;100.00
740;BME280;354;42.694;23.336;2023-02-28T00:52:09;95794.16;;;7.02;100.00
740;BME280;354;42.694;23.336;2023-02-28T00:54:35;95802.59;;;6.90;100.00
740;BME280;354;42.694;23.336;2023-02-28T00:57:00;95802.00;;;6.79;100.00
740;BME280;354;42.694;23.336;2023-02-28T00:59:26;95790.97;;;6.69;100.00
740;BME280;354;42.694;23.336;2023-02-28T01:01:51;95800.59;;;6.69;100.00
740;BME280;354;42.694;23.336;2023-02-28T01:04:17;95801.50;;;6.53;100.00
740;BME280;354;42.694;23.336;2023-02-28T01:06:42;95806.72;;;6.53;100.00
740;BME280;354;42.694;23.336;2023-02-28T01:09:08;95823.09;;;6.47;100.00
740;BME280;354;42.694;23.336;2023-02-28T01:11:34;95811.09;;;6.38;100.00
740;BME280;354;42.694;23.336;2023-02-28T01:14:00;95805.56;;;6.24;100.00
740;BME280;354;42.694;23.336;2023-02-28T01:16:26;95811.16;;;6.13;100.00
740;BME280;354;42.694;23.336;2023-02-28T01:18:52;95780.00;;;6.12;100.00
740;BME280;354;42.694;23.336;2023-02-28T01:21:19;95801.75;;;5.96;100.00
740;BME280;354;42.694;23.336;2023-02-28T01:23:45;95804.69;;;6.01;100.00
740;BME280;354;42.694;23.336;2023-02-28T01:26:21;95800.94;;;5.87;100.00
740;BME280;354;42.694;23.336;2023-02-28T01:28:49;95795.91;;;5.77;100.00
740;BME280;354;42.694;23.336;2023-02-28T01:31:17;95791.69;;;5.68;100.00
740;BME280;354;42.694;23.336;2023-02-28T01:33:43;95794.63;;;5.73;100.00
740;BME280;354;42.694;23.336;2023-02-28T01:36:11;95796.88;;;5.76;100.00
740;BME280;354;42.694;23.336;2023-02-28T01:38:38;95801.63;;;5.73;100.00
740;BME280;354;42.694;23.336;2023-02-28T01:41:04;95798.16;;;5.89;100.00
740;BME280;354;42.694;23.336;2023-02-28T01:46:07;95801.41;;;5.91;100.00
740;BME280;354;42.694;23.336;2023-02-28T01:48:42;95795.56;;;5.89;100.00
740;BME280;354;42.694;23.336;2023-02-28T01:51:13;95795.75;;;5.79;100.00
740;BME280;354;42.694;23.336;2023-02-28T01:53:46;95802.41;;;5.81;100.00
740;BME280;354;42.694;23.336;2023-02-28T01:56:14;95802.09;;;5.85;100.00
740;BME280;354;42.694;23.336;2023-02-28T01:58:47;95810.59;;;5.70;100.00
740;BME280;354;42.694;23.336;2023-02-28T02:01:12;95796.88;;;5.85;100.00
740;BME280;354;42.694;23.336;2023-02-28T02:03:53;95808.44;;;5.98;100.00
740;BME280;354;42.694;23.336;2023-02-28T02:06:29;95793.91;;;5.88;100.00
740;BME280;354;42.694;23.336;2023-02-28T02:08:55;95807.47;;;5.91;100.00
740;BME280;354;42.694;23.336;2023-02-28T02:11:23;95805.84;;;5.82;100.00
740;BME280;354;42.694;23.336;2023-02-28T02:17:07;95792.63;;;5.75;100.00
740;BME280;354;42.694;23.336;2023-02-28T02:28:30;95790.69;;;5.94;100.00
740;BME280;354;42.694;23.336;2023-02-28T02:34:03;95802.72;;;6.03;100.00
740;BME280;354;42.694;23.336;2023-02-28T02:39:17;95814.34;;;6.31;100.00
740;BME280;354;42.694;23.336;2023-02-28T02:41:54;95806.97;;;6.43;100.00
740;BME280;354;42.694;23.336;2023-02-28T02:44:30;95811.59;;;6.33;100.00
740;BME280;354;42.694;23.336;2023-02-28T02:47:09;95817.50;;;6.27;100.00
740;BME280;354;42.694;23.336;2023-02-28T02:49:38;95819.13;;;6.28;100.00
740;BME280;354;42.694;23.336;2023-02-28T02:52:11;95821.53;;;6.38;100.00
740;BME280;354;42.694;23.336;2023-02-28T02:54:41;95821.22;;;6.32;100.00
740;BME280;354;42.694;23.336;2023-02-28T02:57:17;95814.34;;;6.31;100.00
740;BME280;354;42.694;23.336;2023-02-28T02:59:45;95819.41;;;6.33;100.00
740;BME280;354;42.694;23.336;2023-02-28T03:02:12;95814.63;;;6.45;100.00
740;BME280;354;42.694;23.336;2023-02-28T03:05:00;95832.53;;;6.56;100.00
740;BME280;354;42.694;23.336;2023-02-28T03:07:27;95799.06;;;6.51;100.00
740;BME280;354;42.694;23.336;2023-02-28T03:09:54;95829.03;;;6.72;100.00
740;BME280;354;42.694;23.336;2023-02-28T03:12:21;95813.16;;;6.73;100.00
740;BME280;354;42.694;23.336;2023-02-28T03:15:11;95839.69;;;6.93;100.00
740;BME280;354;42.694;23.336;2023-02-28T03:17:53;95840.94;;;6.97;100.00
740;BME280;354;42.694;23.336;2023-02-28T03:20:38;95853.06;;;6.98;100.00
740;BME280;354;42.694;23.336;2023-02-28T03:23:23;95849.47;;;6.99;100.00
740;BME280;354;42.694;23.336;2023-02-28T03:26:11;95849.09;;;7.02;100.00
740;BME280;354;42.694;23.336;2023-02-28T03:28:43;95846.47;;;7.02;100.00
740;BME280;354;42.694;23.336;2023-02-28T03:31:30;95848.78;;;6.97;100.00
740;BME280;354;42.694;23.336;2023-02-28T03:34:10;95848.88;;;6.89;100.00
740;BME280;354;42.694;23.336;2023-02-28T03:36:39;95853.72;;;6.92;100.00
740;BME280;354;42.694;23.336;2023-02-28T03:39:26;95851.13;;;6.92;100.00
740;BME280;354;42.694;23.336;2023-02-28T03:41:59;95848.16;;;6.95;100.00
740;BME280;354;42.694;23.336;2023-02-28T03:44:32;95826.53;;;6.78;100.00
740;BME280;354;42.694;23.336;2023-02-28T03:47:06;95848.16;;;6.95;100.00
740;BME280;354;42.694;23.336;2023-02-28T03:50:03;95863.81;;;7.03;100.00
740;BME280;354;42.694;23.336;2023-02-28T03:52:31;95861.75;;;6.91;100.00
740;BME280;354;42.694;23.336;2023-02-28T03:55:02;95840.91;;;6.82;100.00
740;BME280;354;42.694;23.336;2023-02-28T03:57:47;95862.13;;;6.88;100.00
740;BME280;354;42.694;23.336;2023-02-28T04:00:21;95863.66;;;7.05;100.00
740;BME280;354;42.694;23.336;2023-02-28T04:02:49;95853.81;;;7.07;100.00
740;BME280;354;42.694;23.336;2023-02-28T04:05:19;95858.72;;;7.10;100.00
740;BME280;354;42.694;23.336;2023-02-28T04:07:44;95861.66;;;7.07;100.00
740;BME280;354;42.694;23.336;2023-02-28T04:10:11;95866.88;;;7.07;100.00
740;BME280;354;42.694;23.336;2023-02-28T04:12:37;95859.41;;;7.04;100.00
740;BME280;354;42.694;23.336;2023-02-28T04:15:03;95856.19;;;6.94;100.00
740;BME280;354;42.694;23.336;2023-02-28T04:17:28;95846.06;;;6.91;100.00
740;BME280;354;42.694;23.336;2023-02-28T04:19:54;95843.75;;;6.96;100.00
740;BME280;354;42.694;23.336;2023-02-28T04:22:21;95855.19;;;6.95;100.00
740;BME280;354;42.694;23.336;2023-02-28T04:24:47;95845.72;;;6.94;100.00
740;BME280;354;42.694;23.336;2023-02-28T04:27:12;95857.19;;;6.93;100.00
740;BME280;354;42.694;23.336;2023-02-28T04:29:37;95851.28;;;6.91;100.00
740;BME280;354;42.694;23.336;2023-02-28T04:32:04;95854.72;;;6.91;100.00
740;BME280;354;42.694;23.336;2023-02-28T04:34:31;95847.88;;;6.90;100.00
740;BME280;354;42.694;23.336;2023-02-28T04:36:57;95853.91;;;6.91;100.00
740;BME280;354;42.694;23.336;2023-02-28T04:39:23;95862.03;;;6.73;100.00
740;BME280;354;42.694;23.336;2023-02-28T04:41:49;95865.75;;;6.78;100.00
740;BME280;354;42.694;23.336;2023-02-28T04:44:15;95866.44;;;6.72;100.00
740;BME280;354;42.694;23.336;2023-02-28T04:46:42;95875.59;;;6.76;100.00
740;BME280;354;42.694;23.336;2023-02-28T04:49:09;95881.13;;;6.81;100.00
740;BME280;354;42.694;23.336;2023-02-28T04:51:35;95888.66;;;6.76;100.00
740;BME280;354;42.694;23.336;2023-02-28T04:54:01;95898.25;;;6.84;100.00
740;BME280;354;42.694;23.336;2023-02-28T04:56:26;95888.81;;;6.75;100.00
740;BME280;354;42.694;23.336;2023-02-28T04:58:51;95884.31;;;6.60;100.00
740;BME280;354;42.694;23.336;2023-02-28T05:03:45;95880.78;;;6.37;100.00
740;BME280;354;42.694;23.336;2023-02-28T05:06:11;95883.34;;;6.53;100.00
740;BME280;354;42.694;23.336;2023-02-28T05:08:37;95886.13;;;6.60;100.00
740;BME280;354;42.694;23.336;2023-02-28T05:11:03;95878.59;;;6.57;100.00
740;BME280;354;42.694;23.336;2023-02-28T05:13:29;95887.72;;;6.61;100.00
740;BME280;354;42.694;23.336;2023-02-28T05:15:55;95879.22;;;6.67;100.00
740;BME280;354;42.694;23.336;2023-02-28T05:18:21;95872.69;;;6.63;100.00
740;BME280;354;42.694;23.336;2023-02-28T05:20:46;95865.66;;;6.64;100.00
740;BME280;354;42.694;23.336;2023-02-28T05:23:12;95893.13;;;6.91;100.00
740;BME280;354;42.694;23.336;2023-02-28T05:25:38;95898.34;;;6.99;100.00
740;BME280;354;42.694;23.336;2023-02-28T05:28:04;95899.66;;;6.95;100.00
740;BME280;354;42.694;23.336;2023-02-28T05:30:30;95911.56;;;6.97;100.00
740;BME280;354;42.694;23.336;2023-02-28T05:32:57;95910.44;;;6.92;100.00
740;BME280;354;42.694;23.336;2023-02-28T05:35:23;95912.69;;;7.03;100.00
740;BME280;354;42.694;23.336;2023-02-28T05:37:49;95905.19;;;7.00;100.00
740;BME280;354;42.694;23.336;2023-02-28T05:40:14;95915.09;;;7.12;100.00
740;BME280;354;42.694;23.336;2023-02-28T05:42:40;95909.63;;;6.99;100.00
740;BME280;354;42.694;23.336;2023-02-28T05:45:06;95918.22;;;7.08;100.00
740;BME280;354;42.694;23.336;2023-02-28T05:47:32;95914.44;;;7.10;100.00
740;BME280;354;42.694;23.336;2023-02-28T05:49:58;95924.09;;;7.10;100.00
740;BME280;354;42.694;23.336;2023-02-28T05:52:23;95894.13;;;6.90;100.00
740;BME280;354;42.694;23.336;2023-02-28T05:54:48;95918.38;;;7.15;100.00
740;BME280;354;42.694;23.336;2023-02-28T05:57:15;95931.56;;;7.21;100.00
740;BME280;354;42.694;23.336;2023-02-28T05:59:40;95928.28;;;7.19;100.00
740;BME280;354;42.694;23.336;2023-02-28T06:02:11;95924.56;;;7.13;100.00
740;BME280;354;42.694;23.336;2023-02-28T06:04:37;95920.09;;;7.22;100.00
740;BME280;354;42.694;23.336;2023-02-28T06:07:02;95912.94;;;7.16;100.00
740;BME280;354;42.694;23.336;2023-02-28T06:09:28;95921.09;;;7.21;100.00
740;BME280;354;42.694;23.336;2023-02-28T06:11:54;95916.56;;;7.38;100.00
740;BME280;354;42.694;23.336;2023-02-28T06:14:20;95914.94;;;7.37;100.00
740;BME280;354;42.694;23.336;2023-02-28T06:16:46;95923.25;;;7.40;100.00
740;BME280;354;42.694;23.336;2023-02-28T06:19:11;95910.16;;;7.40;100.00
740;BME280;354;42.694;23.336;2023-02-28T06:21:38;95920.94;;;7.46;100.00
740;BME280;354;42.694;23.336;2023-02-28T06:24:03;95915.78;;;7.29;100.00
740;BME280;354;42.694;23.336;2023-02-28T06:26:29;95913.97;;;7.38;100.00
740;BME280;354;42.694;23.336;2023-02-28T06:28:54;95912.03;;;7.55;100.00
740;BME280;354;42.694;23.336;2023-02-28T06:31:20;95916.66;;;7.68;100.00
740;BME280;354;42.694;23.336;2023-02-28T06:33:47;95922.97;;;7.81;100.00
740;BME280;354;42.694;23.336;2023-02-28T06:36:14;95913.19;;;7.75;100.00
740;BME280;354;42.694;23.336;2023-02-28T06:38:40;95926.19;;;7.83;100.00
740;BME280;354;42.694;23.336;2023-02-28T06:41:06;95928.25;;;7.73;100.00
740;BME280;354;42.694;23.336;2023-02-28T06:43:34;95911.63;;;7.66;100.00
740;BME280;354;42.694;23.336;2023-02-28T06:46:02;95928.25;;;7.73;100.00
740;BME280;354;42.694;23.336;2023-02-28T06:48:28;95933.53;;;7.88;100.00
740;BME280;354;42.694;23.336;2023-02-28T06:51:11;95886.28;;;7.81;100.00
740;BME280;354;42.694;23.336;2023-02-28T06:53:38;95925.63;;;8.11;100.00
740;BME280;354;42.694;23.336;2023-02-28T06:56:05;95923.91;;;8.18;100.00
740;BME280;354;42.694;23.336;2023-02-28T06:58:31;95932.88;;;8.24;100.00
740;BME280;354;42.694;23.336;2023-02-28T07:00:57;95923.66;;;8.28;100.00
740;BME280;354;42.694;23.336;2023-02-28T07:03:22;95931.63;;;8.19;100.00
740;BME280;354;42.694;23.336;2023-02-28T07:05:48;95915.44;;;8.16;100.00
740;BME280;354;42.694;23.336;2023-02-28T07:08:14;95927.97;;;8.06;100.00
740;BME280;354;42.694;23.336;2023-02-28T07:10:39;95936.41;;;8.16;100.00
740;BME280;354;42.694;23.336;2023-02-28T07:13:07;95927.97;;;8.06;100.00
740;BME280;354;42.694;23.336;2023-02-28T07:15:32;95933.81;;;7.93;100.00
740;BME280;354;42.694;23.336;2023-02-28T07:17:58;95911.53;;;7.74;100.00
740;BME280;354;42.694;23.336;2023-02-28T07:20:24;95921.97;;;7.82;100.00
740;BME280;354;42.694;23.336;2023-02-28T07:22:50;95922.38;;;7.71;100.00
740;BME280;354;42.694;23.336;2023-02-28T07:25:25;95924.50;;;7.90;100.00
740;BME280;354;42.694;23.336;2023-02-28T07:27:51;95930.91;;;7.88;100.00
740;BME280;354;42.694;23.336;2023-02-28T07:30:17;95945.75;;;7.96;100.00
740;BME280;354;42.694;23.336;2023-02-28T07:32:43;95938.44;;;8.06;100.00
740;BME280;354;42.694;23.336;2023-02-28T07:35:08;95936.34;;;8.24;100.00
740;BME280;354;42.694;23.336;2023-02-28T07:37:34;95937.59;;;8.13;100.00
740;BME280;354;42.694;23.336;2023-02-28T07:40:03;95932.13;;;8.53;100.00
740;BME280;354;42.694;23.336;2023-02-28T07:42:31;95933.19;;;8.73;100.00
740;BME280;354;42.694;23.336;2023-02-28T07:44:57;95932.84;;;8.76;100.00
740;BME280;354;42.694;23.336;2023-02-28T07:47:22;95933.75;;;8.54;100.00
740;BME280;354;42.694;23.336;2023-02-28T07:49:47;95934.81;;;8.44;100.00
740;BME280;354;42.694;23.336;2023-02-28T07:52:13;95927.19;;;8.35;100.00
740;BME280;354;42.694;23.336;2023-02-28T07:54:38;95930.03;;;8.48;100.00
740;BME280;354;42.694;23.336;2023-02-28T07:57:03;95899.22;;;8.65;100.00
740;BME280;354;42.694;23.336;2023-02-28T07:59:29;95924.56;;;8.94;100.00
740;BME280;354;42.694;23.336;2023-02-28T08:01:57;95925.91;;;9.05;100.00
740;BME280;354;42.694;23.336;2023-02-28T08:04:22;95928.22;;;9.29;100.00
740;BME280;354;42.694;23.336;2023-02-28T08:06:47;95894.38;;;9.34;100.00
740;BME280;354;42.694;23.336;2023-02-28T08:09:13;95918.09;;;9.90;100.00
740;BME280;354;42.694;23.336;2023-02-28T08:11:39;95916.28;;;9.91;100.00
740;BME280;354;42.694;23.336;2023-02-28T08:14:04;95913.38;;;10.28;100.00
740;BME280;354;42.694;23.336;2023-02-28T08:16:31;95917.59;;;10.58;100.00
740;BME280;354;42.694;23.336;2023-02-28T08:18:56;95919.00;;;10.60;100.00
740;BME280;354;42.694;23.336;2023-02-28T08:21:21;95924.25;;;10.95;100.00
740;BME280;354;42.694;23.336;2023-02-28T08:23:48;95920.69;;;11.16;100.00
740;BME280;354;42.694;23.336;2023-02-28T08:26:15;95918.97;;;11.49;100.00
740;BME280;354;42.694;23.336;2023-02-28T08:28:40;95918.38;;;11.74;100.00
740;BME280;354;42.694;23.336;2023-02-28T08:31:10;95920.59;;;11.64;100.00
740;BME280;354;42.694;23.336;2023-02-28T08:33:36;95915.97;;;11.79;100.00
740;BME280;354;42.694;23.336;2023-02-28T08:36:02;95920.25;;;11.86;100.00
740;BME280;354;42.694;23.336;2023-02-28T08:38:27;95920.44;;;11.92;100.00
740;BME280;354;42.694;23.336;2023-02-28T08:41:05;95901.81;;;11.93;100.00
740;BME280;354;42.694;23.336;2023-02-28T08:43:33;95917.22;;;12.23;100.00
740;BME280;354;42.694;23.336;2023-02-28T08:45:59;95916.63;;;12.21;100.00
740;BME280;354;42.694;23.336;2023-02-28T08:48:26;95913.56;;;12.17;100.00
740;BME280;354;42.694;23.336;2023-02-28T08:53:24;95909.84;;;12.64;100.00
740;BME280;354;42.694;23.336;2023-02-28T08:56:04;95915.16;;;12.51;100.00
740;BME280;354;42.694;23.336;2023-02-28T08:58:30;95915.06;;;12.84;100.00
740;BME280;354;42.694;23.336;2023-02-28T09:00:56;95917.28;;;12.94;100.00
740;BME280;354;42.694;23.336;2023-02-28T09:03:22;95920.25;;;13.11;100.00
740;BME280;354;42.694;23.336;2023-02-28T09:05:55;95897.50;;;13.10;100.00
740;BME280;354;42.694;23.336;2023-02-28T09:08:21;95911.63;;;12.84;100.00
740;BME280;354;42.694;23.336;2023-02-28T09:10:47;95911.50;;;13.17;100.00
740;BME280;354;42.694;23.336;2023-02-28T09:13:12;95909.72;;;13.49;100.00
740;BME280;354;42.694;23.336;2023-02-28T09:15:38;95910.00;;;13.73;100.00
740;BME280;354;42.694;23.336;2023-02-28T09:18:04;95901.19;;;13.85;100.00
740;BME280;354;42.694;23.336;2023-02-28T09:20:29;95901.34;;;13.59;100.00
740;BME280;354;42.694;23.336;2023-02-28T09:22:55;95909.41;;;13.70;100.00
740;BME280;354;42.694;23.336;2023-02-28T09:25:20;95898.72;;;13.84;100.00
740;BME280;354;42.694;23.336;2023-02-28T09:27:46;95911.69;;;13.92;100.00
740;BME280;354;42.694;23.336;2023-02-28T09:30:12;95905.66;;;13.85;100.00
740;BME280;354;42.694;23.336;2023-02-28T09:32:37;95892.38;;;14.16;100.00
740;BME280;354;42.694;23.336;2023-02-28T09:35:03;95903.63;;;14.55;100.00
740;BME280;354;42.694;23.336;2023-02-28T09:37:29;95897.75;;;14.71;100.00
740;BME280;354;42.694;23.336;2023-02-28T09:39:56;95898.28;;;14.37;100.00
740;BME280;354;42.694;23.336;2023-02-28T09:42:28;95903.59;;;14.37;100.00
740;BME280;354;42.694;23.336;2023-02-28T09:44:57;95903.81;;;14.10;100.00
740;BME280;354;42.694;23.336;2023-02-28T09:47:44;95905.06;;;14.08;100.00
740;BME280;354;42.694;23.336;2023-02-28T09:52:51;95895.75;;;14.48;100.00
740;BME280;354;42.694;23.336;2023-02-28T09:55:42;95898.19;;;14.50;100.00
740;BME280;354;42.694;23.336;2023-02-28T10:01:12;95885.91;;;14.12;100.00
740;BME280;354;42.694;23.336;2023-02-28T10:06:49;95890.13;;;14.38;100.00
740;BME280;354;42.694;23.336;2023-02-28T10:09:27;95901.47;;;14.45;100.00
740;BME280;354;42.694;23.336;2023-02-28T10:12:01;95879.19;;;14.78;100.00
740;BME280;354;42.694;23.336;2023-02-28T10:14:29;95870.75;;;15.18;100.00
740;BME280;354;42.694;23.336;2023-02-28T10:17:02;95881.28;;;15.06;100.00
740;BME280;354;42.694;23.336;2023-02-28T10:19:35;95878.34;;;14.96;100.00
740;BME280;354;42.694;23.336;2023-02-28T10:24:45;95871.28;;;14.71;100.00
740;BME280;354;42.694;23.336;2023-02-28T10:27:17;95874.84;;;14.40;100.00
740;BME280;354;42.694;23.336;2023-02-28T10:29:46;95865.50;;;14.63;100.00
740;BME280;354;42.694;23.336;2023-02-28T10:32:20;95870.69;;;15.06;100.00
740;BME280;354;42.694;23.336;2023-02-28T10:37:26;95854.78;;;15.06;100.00
740;BME280;354;42.694;23.336;2023-02-28T10:39:52;95853.03;;;15.00;100.00
740;BME280;354;42.694;23.336;2023-02-28T10:42:28;95849.59;;;14.81;100.00
740;BME280;354;42.694;23.336;2023-02-28T10:45:14;95839.22;;;14.61;100.00
740;BME280;354;42.694;23.336;2023-02-28T10:47:53;95841.41;;;14.46;100.00
740;BME280;354;42.694;23.336;2023-02-28T10:50:34;95836.72;;;14.48;100.00
740;BME280;354;42.694;23.336;2023-02-28T11:01:19;95814.47;;;14.12;100.00
740;BME280;354;42.694;23.336;2023-02-28T11:03:46;95816.59;;;14.22;100.00
740;BME280;354;42.694;23.336;2023-02-28T11:08:50;95799.81;;;13.91;100.00
740;BME280;354;42.694;23.336;2023-02-28T11:11:17;95777.09;;;13.84;100.00
740;BME280;354;42.694;23.336;2023-02-28T11:13:45;95805.22;;;14.21;100.00
740;BME280;354;42.694;23.336;2023-02-28T11:16:12;95812.72;;;14.43;100.00
740;BME280;354;42.694;23.336;2023-02-28T11:21:08;95801.63;;;14.34;100.00
740;BME280;354;42.694;23.336;2023-02-28T11:23:36;95802.94;;;14.25;100.00
740;BME280;354;42.694;23.336;2023-02-28T11:26:05;95794.84;;;14.02;100.00
740;BME280;354;42.694;23.336;2023-02-28T11:28:40;95795.72;;;13.70;100.00
740;BME280;354;42.694;23.336;2023-02-28T11:33:44;95789.91;;;14.05;100.00
740;BME280;354;42.694;23.336;2023-02-28T11:38:54;95792.50;;;14.30;100.00
740;BME280;354;42.694;23.336;2023-02-28T11:41:36;95795.34;;;14.10;100.00
740;BME280;354;42.694;23.336;2023-02-28T11:47:00;95782.38;;;13.34;100.00
740;BME280;354;42.694;23.336;2023-02-28T11:52:18;95769.66;;;13.49;100.00
740;BME280;354;42.694;23.336;2023-02-28T11:54:59;95788.44;;;13.91;100.00
740;BME280;354;42.694;23.336;2023-02-28T12:07:03;95784.91;;;13.72;100.00
740;BME280;354;42.694;23.336;2023-02-28T12:20:32;95776.22;;;13.90;100.00
740;BME280;354;42.694;23.336;2023-02-28T12:25:56;95772.53;;;14.34;100.00
740;BME280;354;42.694;23.336;2023-02-28T12:28:28;95780.44;;;14.71;100.00
740;BME280;354;42.694;23.336;2023-02-28T12:31:29;95775.03;;;14.47;100.00
740;BME280;354;42.694;23.336;2023-02-28T12:34:10;95779.78;;;14.39;100.00
740;BME280;354;42.694;23.336;2023-02-28T12:36:37;95763.28;;;14.00;100.00
740;BME280;354;42.694;23.336;2023-02-28T12:39:18;95772.97;;;13.88;100.00
740;BME280;354;42.694;23.336;2023-02-28T12:41:55;95787.00;;;13.88;100.00
740;BME280;354;42.694;23.336;2023-02-28T12:44:32;95767.13;;;13.86;100.00
740;BME280;354;42.694;23.336;2023-02-28T12:47:04;95739.31;;;13.77;100.00
740;BME280;354;42.694;23.336;2023-02-28T12:49:36;95761.19;;;13.90;100.00
740;BME280;354;42.694;23.336;2023-02-28T12:52:04;95753.09;;;13.85;100.00
740;BME280;354;42.694;23.336;2023-02-28T12:54:38;95762.72;;;14.16;100.00
740;BME280;354;42.694;23.336;2023-02-28T13:00:18;95760.34;;;14.82;100.00
740;BME280;354;42.694;23.336;2023-02-28T13:05:26;95756.50;;;14.96;100.00
740;BME280;354;42.694;23.336;2023-02-28T13:13:05;95762.50;;;15.03;100.00
740;BME280;354;42.694;23.336;2023-02-28T13:15:30;95757.03;;;14.86;100.00
740;BME280;354;42.694;23.336;2023-02-28T13:18:00;95742.16;;;14.55;100.00
740;BME280;354;42.694;23.336;2023-02-28T13:20:38;95752.59;;;14.50;100.00
740;BME280;354;42.694;23.336;2023-02-28T13:26:08;95747.53;;;14.48;100.00
740;BME280;354;42.694;23.336;2023-02-28T13:29:04;95738.31;;;14.33;100.00
740;BME280;354;42.694;23.336;2023-02-28T13:34:35;95755.25;;;14.13;100.00
740;BME280;354;42.694;23.336;2023-02-28T13:37:41;95750.53;;;14.34;100.00
740;BME280;354;42.694;23.336;2023-02-28T13:42:46;95746.28;;;14.51;100.00
740;BME280;354;42.694;23.336;2023-02-28T13:45:26;95742.56;;;14.34;100.00
740;BME280;354;42.694;23.336;2023-02-28T13:47:54;95750.19;;;14.48;100.00
740;BME280;354;42.694;23.336;2023-02-28T13:58:31;95707.50;;;14.87;100.00
740;BME280;354;42.694;23.336;2023-02-28T14:06:28;95728.72;;;14.57;100.00
740;BME280;354;42.694;23.336;2023-02-28T14:11:43;95740.41;;;14.49;100.00
740;BME280;354;42.694;23.336;2023-02-28T14:14:52;95751.69;;;14.38;100.00
740;BME280;354;42.694;23.336;2023-02-28T14:16:55;95739.38;;;14.13;100.00
740;BME280;354;42.694;23.336;2023-02-28T14:19:26;95737.56;;;13.89;100.00
740;BME280;354;42.694;23.336;2023-02-28T14:30:03;95747.31;;;13.45;100.00
740;BME280;354;42.694;23.336;2023-02-28T14:37:58;95753.38;;;13.21;100.00
740;BME280;354;42.694;23.336;2023-02-28T14:40:35;95738.59;;;13.13;100.00
740;BME280;354;42.694;23.336;2023-02-28T14:43:05;95750.34;;;13.24;100.00
740;BME280;354;42.694;23.336;2023-02-28T14:45:33;95746.53;;;13.13;100.00
740;BME280;354;42.694;23.336;2023-02-28T14:48:01;95741.63;;;12.85;100.00
740;BME280;354;42.694;23.336;2023-02-28T14:50:34;95742.31;;;13.05;100.00
740;BME280;354;42.694;23.336;2023-02-28T14:53:01;95737.88;;;12.99;100.00
740;BME280;354;42.694;23.336;2023-02-28T14:55:30;95752.03;;;13.11;100.00
740;BME280;354;42.694;23.336;2023-02-28T14:57:58;95735.66;;;12.96;100.00
740;BME280;354;42.694;23.336;2023-02-28T15:00:29;95755.34;;;13.00;100.00
740;BME280;354;42.694;23.336;2023-02-28T15:02:56;95760.47;;;12.95;100.00
740;BME280;354;42.694;23.336;2023-02-28T15:08:05;95749.66;;;12.65;100.00
740;BME280;354;42.694;23.336;2023-02-28T15:10:31;95751.06;;;12.68;100.00
740;BME280;354;42.694;23.336;2023-02-28T15:13:07;95745.88;;;12.54;100.00
740;BME280;354;42.694;23.336;2023-02-28T15:15:49;95743.66;;;12.45;100.00
740;BME280;354;42.694;23.336;2023-02-28T15:20:55;95743.16;;;12.23;100.00
740;BME280;354;42.694;23.336;2023-02-28T15:23:22;95749.84;;;12.19;100.00
740;BME280;354;42.694;23.336;2023-02-28T15:25:49;95758.38;;;12.21;100.00
740;BME280;354;42.694;23.336;2023-02-28T15:28:20;95755.81;;;11.94;100.00
740;BME280;354;42.694;23.336;2023-02-28T15:31:18;95765.56;;;11.60;100.00
740;BME280;354;42.694;23.336;2023-02-28T15:34:04;95771.63;;;11.41;100.00
740;BME280;354;42.694;23.336;2023-02-28T15:36:31;95771.84;;;11.33;100.00
740;BME280;354;42.694;23.336;2023-02-28T15:39:00;95769.19;;;11.20;100.00
740;BME280;354;42.694;23.336;2023-02-28T15:41:45;95770.22;;;11.32;100.00
740;BME280;354;42.694;23.336;2023-02-28T15:46:59;95770.41;;;11.11;100.00
740;BME280;354;42.694;23.336;2023-02-28T15:49:27;95765.75;;;11.06;100.00
740;BME280;354;42.694;23.336;2023-02-28T15:51:56;95777.47;;;10.97;100.00
740;BME280;354;42.694;23.336;2023-02-28T15:54:29;95775.25;;;10.94;100.00
740;BME280;354;42.694;23.336;2023-02-28T15:56:57;95781.09;;;10.82;100.00
740;BME280;354;42.694;23.336;2023-02-28T15:59:25;95780.25;;;10.75;100.00
740;BME280;354;42.694;23.336;2023-02-28T16:04:36;95784.00;;;10.53;100.00
740;BME280;354;42.694;23.336;2023-02-28T16:07:05;95806.44;;;10.49;100.00